Strona główna
METAR-TAF:

METAR-TAF

Lotnisko :

Lotnisko Mönchengladbach

Mönchengladbach, Niemcy

Szerokość geograficzna: 51-13-49N, Długość geograficzna: 006-30-16E, wysokość: 38 m

Aktualna obserwacja pogody

Raport powstał 29 minut temu, godzina 21:50 UTC
Wiatr 14 kt od południowy zachód
Temperatura 6°C
Wilgotność 87%
Ciśnienie 999 hPa
Widzialność 10 km lub więcej

METAR: EDLN 082150Z AUTO 22014KT 9999 // BKN160/// 06/04 Q0999

czas: 23:19 (22:19 UTC)

Prognoza

Raport powstał 5 godziny i 19 minut temu, godzina 17:00 UTC
Prognoza ważna od 08 godzina 18 UTC do 09 godzina 03 UTC
Wiatr 15 kt od południowy zachód w porywach dochodzący do 25 kt
Widzialność 10 km lub więcej
Rozproszone chmury na wysokości 3000 ft
Prawdopodobieństwo 30% :
Przejściowo
od 08 godzina 18 UTC do 09 godzina 03 UTC
Wiatr 20 kt od południowy zachód w porywach dochodzący do 30 kt
Przerywane chmury na wysokości 2500 ft, Cumulonimbus.
przelotny opad deszczu

TAF: EDLN 081700Z 0818/0903 23015G25KT 9999 SCT030 PROB30 TEMPO 0818/0903 23020G30KT SHRA BKN025CB

Obserwacja i prognoza pogody dla ponad 4000 lotnisk (raport METAR i TAF).

Dostępne stacje oznaczono żółtymi i czerwonymi punktami na mapie.

Najedź kursorem aby zobaczyć nazwę stacji.

Kliknij aby zobaczyć obserwacje i prognozy pogody.

Aby zmienić mapę: kliknij na zielony przycisk z czarnym krzyżykiem, aby powiększyć; na zielony przycisk z myślnikiem, aby pomniejszyć; na zielone strzałki, aby przejść do map sąsiednich.


METAR-TAF: